sensor_id;sensor_type;location;lat;lon;timestamp;temperature;humidity
782;DHT22;374;52.568;13.402;2022-11-15T00:00:54;7.50;99.90
782;DHT22;374;52.568;13.402;2022-11-15T00:03:25;7.50;99.90
782;DHT22;374;52.568;13.402;2022-11-15T00:05:51;7.50;99.90
782;DHT22;374;52.568;13.402;2022-11-15T00:08:16;7.50;99.90
782;DHT22;374;52.568;13.402;2022-11-15T00:10:42;7.50;99.90
782;DHT22;374;52.568;13.402;2022-11-15T00:13:16;7.50;99.90
782;DHT22;374;52.568;13.402;2022-11-15T00:15:42;7.50;99.90
782;DHT22;374;52.568;13.402;2022-11-15T00:18:13;7.50;99.90
782;DHT22;374;52.568;13.402;2022-11-15T00:20:38;7.50;99.90
782;DHT22;374;52.568;13.402;2022-11-15T00:23:04;7.50;99.90
782;DHT22;374;52.568;13.402;2022-11-15T00:25:30;7.50;99.90
782;DHT22;374;52.568;13.402;2022-11-15T00:27:57;7.50;99.90
782;DHT22;374;52.568;13.402;2022-11-15T00:30:22;7.50;99.90
782;DHT22;374;52.568;13.402;2022-11-15T00:32:48;7.50;99.90
782;DHT22;374;52.568;13.402;2022-11-15T00:35:13;7.50;99.90
782;DHT22;374;52.568;13.402;2022-11-15T00:37:39;7.50;99.90
782;DHT22;374;52.568;13.402;2022-11-15T00:40:05;7.50;99.90
782;DHT22;374;52.568;13.402;2022-11-15T00:42:33;7.40;99.90
782;DHT22;374;52.568;13.402;2022-11-15T00:44:59;7.40;99.90
782;DHT22;374;52.568;13.402;2022-11-15T00:47:24;7.40;99.90
782;DHT22;374;52.568;13.402;2022-11-15T00:49:55;7.40;99.90
782;DHT22;374;52.568;13.402;2022-11-15T00:52:20;7.40;99.90
782;DHT22;374;52.568;13.402;2022-11-15T00:54:46;7.40;99.90
782;DHT22;374;52.568;13.402;2022-11-15T00:57:11;7.40;99.90
782;DHT22;374;52.568;13.402;2022-11-15T00:59:40;7.40;99.90
782;DHT22;374;52.568;13.402;2022-11-15T01:02:05;7.40;99.90
782;DHT22;374;52.568;13.402;2022-11-15T01:04:31;7.30;99.90
782;DHT22;374;52.568;13.402;2022-11-15T01:06:56;7.30;99.90
782;DHT22;374;52.568;13.402;2022-11-15T01:09:22;7.30;99.90
782;DHT22;374;52.568;13.402;2022-11-15T01:11:50;7.30;99.90
782;DHT22;374;52.568;13.402;2022-11-15T01:14:16;7.30;99.90
782;DHT22;374;52.568;13.402;2022-11-15T01:16:42;7.30;99.90
782;DHT22;374;52.568;13.402;2022-11-15T01:19:07;7.30;99.90
782;DHT22;374;52.568;13.402;2022-11-15T01:21:33;7.30;99.90
782;DHT22;374;52.568;13.402;2022-11-15T01:23:59;7.30;99.90
782;DHT22;374;52.568;13.402;2022-11-15T01:26:25;7.30;99.90
782;DHT22;374;52.568;13.402;2022-11-15T01:28:50;7.30;99.90
782;DHT22;374;52.568;13.402;2022-11-15T01:31:18;7.20;99.90
782;DHT22;374;52.568;13.402;2022-11-15T01:33:44;7.20;99.90
782;DHT22;374;52.568;13.402;2022-11-15T01:36:16;7.20;99.90
782;DHT22;374;52.568;13.402;2022-11-15T01:38:42;7.20;99.90
782;DHT22;374;52.568;13.402;2022-11-15T01:41:20;7.20;99.90
782;DHT22;374;52.568;13.402;2022-11-15T01:43:49;7.20;99.90
782;DHT22;374;52.568;13.402;2022-11-15T01:48:53;7.20;99.90
782;DHT22;374;52.568;13.402;2022-11-15T01:51:23;7.20;99.90
782;DHT22;374;52.568;13.402;2022-11-15T01:53:52;7.10;99.90
782;DHT22;374;52.568;13.402;2022-11-15T01:56:25;7.20;99.90
782;DHT22;374;52.568;13.402;2022-11-15T01:58:53;7.10;99.90
782;DHT22;374;52.568;13.402;2022-11-15T02:01:21;7.10;99.90
782;DHT22;374;52.568;13.402;2022-11-15T02:03:56;7.10;99.90
782;DHT22;374;52.568;13.402;2022-11-15T02:06:23;7.10;99.90
782;DHT22;374;52.568;13.402;2022-11-15T02:08:52;7.10;99.90
782;DHT22;374;52.568;13.402;2022-11-15T02:11:18;7.10;99.90
782;DHT22;374;52.568;13.402;2022-11-15T02:13:44;7.10;99.90
782;DHT22;374;52.568;13.402;2022-11-15T02:24:48;7.10;99.90
782;DHT22;374;52.568;13.402;2022-11-15T02:30:23;7.10;99.90
782;DHT22;374;52.568;13.402;2022-11-15T02:33:23;7.00;99.90
782;DHT22;374;52.568;13.402;2022-11-15T02:41:03;7.00;99.90
782;DHT22;374;52.568;13.402;2022-11-15T02:46:33;7.00;99.90
782;DHT22;374;52.568;13.402;2022-11-15T02:49:19;7.00;99.90
782;DHT22;374;52.568;13.402;2022-11-15T02:51:46;7.00;99.90
782;DHT22;374;52.568;13.402;2022-11-15T02:54:18;7.00;99.90
782;DHT22;374;52.568;13.402;2022-11-15T02:56:45;7.00;99.90
782;DHT22;374;52.568;13.402;2022-11-15T02:59:28;7.00;99.90
782;DHT22;374;52.568;13.402;2022-11-15T03:02:09;7.00;99.90
782;DHT22;374;52.568;13.402;2022-11-15T03:07:40;6.90;99.90
782;DHT22;374;52.568;13.402;2022-11-15T03:10:14;6.90;99.90
782;DHT22;374;52.568;13.402;2022-11-15T03:12:51;6.90;99.90
782;DHT22;374;52.568;13.402;2022-11-15T03:15:37;6.90;99.90
782;DHT22;374;52.568;13.402;2022-11-15T03:18:32;6.90;99.90
782;DHT22;374;52.568;13.402;2022-11-15T03:21:01;6.90;99.90
782;DHT22;374;52.568;13.402;2022-11-15T03:23:31;6.90;99.90
782;DHT22;374;52.568;13.402;2022-11-15T03:26:00;6.90;99.90
782;DHT22;374;52.568;13.402;2022-11-15T03:31:21;6.90;99.90
782;DHT22;374;52.568;13.402;2022-11-15T03:34:08;6.90;99.90
782;DHT22;374;52.568;13.402;2022-11-15T03:36:35;6.90;99.90
782;DHT22;374;52.568;13.402;2022-11-15T03:39:05;6.90;99.90
782;DHT22;374;52.568;13.402;2022-11-15T03:41:39;6.90;99.90
782;DHT22;374;52.568;13.402;2022-11-15T03:44:34;6.80;99.90
782;DHT22;374;52.568;13.402;2022-11-15T03:47:25;6.80;99.90
782;DHT22;374;52.568;13.402;2022-11-15T03:49:56;6.80;99.90
782;DHT22;374;52.568;13.402;2022-11-15T03:52:22;6.80;99.90
782;DHT22;374;52.568;13.402;2022-11-15T03:54:55;6.80;99.90
782;DHT22;374;52.568;13.402;2022-11-15T03:57:21;6.80;99.90
782;DHT22;374;52.568;13.402;2022-11-15T03:59:46;6.80;99.90
782;DHT22;374;52.568;13.402;2022-11-15T04:02:13;6.80;99.90
782;DHT22;374;52.568;13.402;2022-11-15T04:04:38;6.80;99.90
782;DHT22;374;52.568;13.402;2022-11-15T04:07:04;6.80;99.90
782;DHT22;374;52.568;13.402;2022-11-15T04:09:30;6.80;99.90
782;DHT22;374;52.568;13.402;2022-11-15T04:11:55;6.80;99.90
782;DHT22;374;52.568;13.402;2022-11-15T04:14:21;6.80;99.90
782;DHT22;374;52.568;13.402;2022-11-15T04:16:46;6.80;99.90
782;DHT22;374;52.568;13.402;2022-11-15T04:19:12;6.80;99.90
782;DHT22;374;52.568;13.402;2022-11-15T04:21:56;6.80;99.90
782;DHT22;374;52.568;13.402;2022-11-15T04:24:40;6.80;99.90
782;DHT22;374;52.568;13.402;2022-11-15T04:27:05;6.80;99.90
782;DHT22;374;52.568;13.402;2022-11-15T04:29:31;6.80;99.90
782;DHT22;374;52.568;13.402;2022-11-15T04:32:03;6.80;99.90
782;DHT22;374;52.568;13.402;2022-11-15T04:34:29;6.80;99.90
782;DHT22;374;52.568;13.402;2022-11-15T04:36:55;6.80;99.90
782;DHT22;374;52.568;13.402;2022-11-15T04:39:41;6.80;99.90
782;DHT22;374;52.568;13.402;2022-11-15T04:42:07;6.80;99.90
782;DHT22;374;52.568;13.402;2022-11-15T04:44:33;6.80;99.90
782;DHT22;374;52.568;13.402;2022-11-15T04:46:58;6.80;99.90
782;DHT22;374;52.568;13.402;2022-11-15T04:49:24;6.80;99.90
782;DHT22;374;52.568;13.402;2022-11-15T04:51:52;6.80;99.90
782;DHT22;374;52.568;13.402;2022-11-15T04:54:18;6.80;99.90
782;DHT22;374;52.568;13.402;2022-11-15T04:56:44;6.80;99.90
782;DHT22;374;52.568;13.402;2022-11-15T04:59:09;6.80;99.90
782;DHT22;374;52.568;13.402;2022-11-15T05:01:35;6.70;99.90
782;DHT22;374;52.568;13.402;2022-11-15T05:04:00;6.70;99.90
782;DHT22;374;52.568;13.402;2022-11-15T05:06:44;6.80;99.90
782;DHT22;374;52.568;13.402;2022-11-15T05:09:10;6.70;99.90
782;DHT22;374;52.568;13.402;2022-11-15T05:11:35;6.70;99.90
782;DHT22;374;52.568;13.402;2022-11-15T05:14:01;6.70;99.90
782;DHT22;374;52.568;13.402;2022-11-15T05:16:26;6.80;99.90
782;DHT22;374;52.568;13.402;2022-11-15T05:18:53;6.80;99.90
782;DHT22;374;52.568;13.402;2022-11-15T05:21:19;6.80;99.90
782;DHT22;374;52.568;13.402;2022-11-15T05:23:44;6.80;99.90
782;DHT22;374;52.568;13.402;2022-11-15T05:26:10;6.80;99.90
782;DHT22;374;52.568;13.402;2022-11-15T05:28:37;6.80;99.90
782;DHT22;374;52.568;13.402;2022-11-15T05:31:05;6.70;99.90
782;DHT22;374;52.568;13.402;2022-11-15T05:33:31;6.70;99.90
782;DHT22;374;52.568;13.402;2022-11-15T05:36:12;6.70;99.90
782;DHT22;374;52.568;13.402;2022-11-15T05:38:38;6.80;99.90
782;DHT22;374;52.568;13.402;2022-11-15T05:41:04;6.70;99.90
782;DHT22;374;52.568;13.402;2022-11-15T05:43:33;6.70;99.90
782;DHT22;374;52.568;13.402;2022-11-15T05:46:01;6.70;99.90
782;DHT22;374;52.568;13.402;2022-11-15T05:48:28;6.70;99.90
782;DHT22;374;52.568;13.402;2022-11-15T05:50:53;6.70;99.90
782;DHT22;374;52.568;13.402;2022-11-15T05:53:20;6.70;99.90
782;DHT22;374;52.568;13.402;2022-11-15T05:55:46;6.70;99.90
782;DHT22;374;52.568;13.402;2022-11-15T05:58:20;6.70;99.90
782;DHT22;374;52.568;13.402;2022-11-15T06:00:45;6.70;99.90
782;DHT22;374;52.568;13.402;2022-11-15T06:03:11;6.70;99.90
782;DHT22;374;52.568;13.402;2022-11-15T06:05:39;6.70;99.90
782;DHT22;374;52.568;13.402;2022-11-15T06:08:05;6.70;99.90
782;DHT22;374;52.568;13.402;2022-11-15T06:10:30;6.70;99.90
782;DHT22;374;52.568;13.402;2022-11-15T06:13:00;6.70;99.90
782;DHT22;374;52.568;13.402;2022-11-15T06:15:31;6.70;99.90
782;DHT22;374;52.568;13.402;2022-11-15T06:17:57;6.70;99.90
782;DHT22;374;52.568;13.402;2022-11-15T06:20:25;6.70;99.90
782;DHT22;374;52.568;13.402;2022-11-15T06:22:50;6.70;99.90
782;DHT22;374;52.568;13.402;2022-11-15T06:25:16;6.70;99.90
782;DHT22;374;52.568;13.402;2022-11-15T06:27:41;6.60;99.90
782;DHT22;374;52.568;13.402;2022-11-15T06:30:07;6.60;99.90
782;DHT22;374;52.568;13.402;2022-11-15T06:32:33;6.60;99.90
782;DHT22;374;52.568;13.402;2022-11-15T06:34:58;6.60;99.90
782;DHT22;374;52.568;13.402;2022-11-15T06:37:24;6.60;99.90
782;DHT22;374;52.568;13.402;2022-11-15T06:39:49;6.60;99.90
782;DHT22;374;52.568;13.402;2022-11-15T06:42:15;6.60;99.90
782;DHT22;374;52.568;13.402;2022-11-15T06:44:44;6.60;99.90
782;DHT22;374;52.568;13.402;2022-11-15T06:47:10;6.60;99.90
782;DHT22;374;52.568;13.402;2022-11-15T06:49:35;6.60;99.90
782;DHT22;374;52.568;13.402;2022-11-15T06:52:01;6.60;99.90
782;DHT22;374;52.568;13.402;2022-11-15T06:54:26;6.60;99.90
782;DHT22;374;52.568;13.402;2022-11-15T06:56:52;6.70;99.90
782;DHT22;374;52.568;13.402;2022-11-15T06:59:17;6.70;99.90
782;DHT22;374;52.568;13.402;2022-11-15T07:01:43;6.70;99.90
782;DHT22;374;52.568;13.402;2022-11-15T07:04:08;6.70;99.90
782;DHT22;374;52.568;13.402;2022-11-15T07:06:33;6.70;99.90
782;DHT22;374;52.568;13.402;2022-11-15T07:08:59;6.70;99.90
782;DHT22;374;52.568;13.402;2022-11-15T07:11:24;6.70;99.90
782;DHT22;374;52.568;13.402;2022-11-15T07:13:50;6.70;99.90
782;DHT22;374;52.568;13.402;2022-11-15T07:16:18;6.70;99.90
782;DHT22;374;52.568;13.402;2022-11-15T07:18:44;6.70;99.90
782;DHT22;374;52.568;13.402;2022-11-15T07:21:10;6.70;99.90
782;DHT22;374;52.568;13.402;2022-11-15T07:23:37;6.70;99.90
782;DHT22;374;52.568;13.402;2022-11-15T07:26:07;6.70;99.90
782;DHT22;374;52.568;13.402;2022-11-15T07:28:33;6.80;99.90
782;DHT22;374;52.568;13.402;2022-11-15T07:31:05;6.80;99.90
782;DHT22;374;52.568;13.402;2022-11-15T07:33:31;6.80;99.90
782;DHT22;374;52.568;13.402;2022-11-15T07:36:03;6.80;99.90
782;DHT22;374;52.568;13.402;2022-11-15T07:38:29;6.80;99.90
782;DHT22;374;52.568;13.402;2022-11-15T07:40:59;6.80;99.90
782;DHT22;374;52.568;13.402;2022-11-15T07:43:27;6.80;99.90
782;DHT22;374;52.568;13.402;2022-11-15T07:45:55;6.90;99.90
782;DHT22;374;52.568;13.402;2022-11-15T07:48:21;6.90;99.90
782;DHT22;374;52.568;13.402;2022-11-15T07:50:46;6.90;99.90
782;DHT22;374;52.568;13.402;2022-11-15T07:53:12;6.90;99.90
782;DHT22;374;52.568;13.402;2022-11-15T07:55:40;6.90;99.90
782;DHT22;374;52.568;13.402;2022-11-15T07:58:09;7.00;99.90
782;DHT22;374;52.568;13.402;2022-11-15T08:00:35;7.00;99.90
782;DHT22;374;52.568;13.402;2022-11-15T08:03:09;7.00;99.90
782;DHT22;374;52.568;13.402;2022-11-15T08:05:36;7.00;99.90
782;DHT22;374;52.568;13.402;2022-11-15T08:08:03;7.00;99.90
782;DHT22;374;52.568;13.402;2022-11-15T08:10:29;7.10;99.90
782;DHT22;374;52.568;13.402;2022-11-15T08:13:03;7.10;99.90
782;DHT22;374;52.568;13.402;2022-11-15T08:15:29;7.10;99.90
782;DHT22;374;52.568;13.402;2022-11-15T08:18:03;7.20;99.90
782;DHT22;374;52.568;13.402;2022-11-15T08:20:30;7.20;99.90
782;DHT22;374;52.568;13.402;2022-11-15T08:22:59;7.20;99.90
782;DHT22;374;52.568;13.402;2022-11-15T08:25:26;7.20;99.90
782;DHT22;374;52.568;13.402;2022-11-15T08:27:54;7.20;99.90
782;DHT22;374;52.568;13.402;2022-11-15T08:30:19;7.30;99.90
782;DHT22;374;52.568;13.402;2022-11-15T08:32:45;7.30;99.90
782;DHT22;374;52.568;13.402;2022-11-15T08:35:11;7.30;99.90
782;DHT22;374;52.568;13.402;2022-11-15T08:37:36;7.40;99.90
782;DHT22;374;52.568;13.402;2022-11-15T08:40:02;7.40;99.90
782;DHT22;374;52.568;13.402;2022-11-15T08:42:28;7.40;99.90
782;DHT22;374;52.568;13.402;2022-11-15T08:44:56;7.50;99.90
782;DHT22;374;52.568;13.402;2022-11-15T08:47:22;7.50;99.90
782;DHT22;374;52.568;13.402;2022-11-15T08:49:50;7.50;99.90
782;DHT22;374;52.568;13.402;2022-11-15T08:52:16;7.60;99.90
782;DHT22;374;52.568;13.402;2022-11-15T08:54:41;7.60;99.90
782;DHT22;374;52.568;13.402;2022-11-15T08:57:07;7.60;99.90
782;DHT22;374;52.568;13.402;2022-11-15T08:59:35;7.70;99.90
782;DHT22;374;52.568;13.402;2022-11-15T09:02:00;7.70;99.90
782;DHT22;374;52.568;13.402;2022-11-15T09:04:26;7.70;99.90
782;DHT22;374;52.568;13.402;2022-11-15T09:06:52;7.80;99.90
782;DHT22;374;52.568;13.402;2022-11-15T09:09:17;7.80;99.90
782;DHT22;374;52.568;13.402;2022-11-15T09:11:43;7.80;99.90
782;DHT22;374;52.568;13.402;2022-11-15T09:14:11;7.80;99.90
782;DHT22;374;52.568;13.402;2022-11-15T09:16:36;7.90;99.90
782;DHT22;374;52.568;13.402;2022-11-15T09:19:02;8.00;99.90
782;DHT22;374;52.568;13.402;2022-11-15T09:21:29;8.00;99.90
782;DHT22;374;52.568;13.402;2022-11-15T09:23:55;8.00;99.90
782;DHT22;374;52.568;13.402;2022-11-15T09:26:20;8.00;99.90
782;DHT22;374;52.568;13.402;2022-11-15T09:28:46;8.10;99.90
782;DHT22;374;52.568;13.402;2022-11-15T09:31:12;8.10;99.90
782;DHT22;374;52.568;13.402;2022-11-15T09:33:37;8.10;99.90
782;DHT22;374;52.568;13.402;2022-11-15T09:36:05;8.10;99.90
782;DHT22;374;52.568;13.402;2022-11-15T09:38:32;8.20;99.90
782;DHT22;374;52.568;13.402;2022-11-15T09:41:22;8.20;99.90
782;DHT22;374;52.568;13.402;2022-11-15T09:49:58;8.30;99.90
782;DHT22;374;52.568;13.402;2022-11-15T09:52:24;8.30;99.90
782;DHT22;374;52.568;13.402;2022-11-15T09:54:51;8.30;99.90
782;DHT22;374;52.568;13.402;2022-11-15T09:57:32;8.30;99.90
782;DHT22;374;52.568;13.402;2022-11-15T10:00:20;8.40;99.90
782;DHT22;374;52.568;13.402;2022-11-15T10:05:37;8.40;99.90
782;DHT22;374;52.568;13.402;2022-11-15T10:08:26;8.40;99.90
782;DHT22;374;52.568;13.402;2022-11-15T10:11:42;8.40;99.90
782;DHT22;374;52.568;13.402;2022-11-15T10:13:45;8.50;99.90
782;DHT22;374;52.568;13.402;2022-11-15T10:19:21;8.50;99.90
782;DHT22;374;52.568;13.402;2022-11-15T10:24:39;8.60;99.90
782;DHT22;374;52.568;13.402;2022-11-15T10:27:15;8.60;99.90
782;DHT22;374;52.568;13.402;2022-11-15T10:29:46;8.70;99.90
782;DHT22;374;52.568;13.402;2022-11-15T10:32:15;8.70;99.90
782;DHT22;374;52.568;13.402;2022-11-15T10:34:42;8.70;99.90
782;DHT22;374;52.568;13.402;2022-11-15T10:37:11;8.80;99.90
782;DHT22;374;52.568;13.402;2022-11-15T10:39:37;8.80;99.90
782;DHT22;374;52.568;13.402;2022-11-15T10:42:38;8.80;99.90
782;DHT22;374;52.568;13.402;2022-11-15T10:45:26;8.90;99.90
782;DHT22;374;52.568;13.402;2022-11-15T10:47:53;8.90;99.90
782;DHT22;374;52.568;13.402;2022-11-15T10:50:30;8.90;99.90
782;DHT22;374;52.568;13.402;2022-11-15T10:52:57;9.00;99.90
782;DHT22;374;52.568;13.402;2022-11-15T10:55:32;9.00;99.90
782;DHT22;374;52.568;13.402;2022-11-15T10:58:04;9.10;99.90
782;DHT22;374;52.568;13.402;2022-11-15T11:01:17;9.10;99.90
782;DHT22;374;52.568;13.402;2022-11-15T11:03:58;9.10;99.90
782;DHT22;374;52.568;13.402;2022-11-15T11:06:24;9.20;99.90
782;DHT22;374;52.568;13.402;2022-11-15T11:09:02;9.20;99.90
782;DHT22;374;52.568;13.402;2022-11-15T11:11:46;9.20;99.90
782;DHT22;374;52.568;13.402;2022-11-15T11:14:17;9.30;99.90
782;DHT22;374;52.568;13.402;2022-11-15T11:17:02;9.30;99.90
782;DHT22;374;52.568;13.402;2022-11-15T11:19:41;9.40;99.90
782;DHT22;374;52.568;13.402;2022-11-15T11:22:22;9.40;99.90
782;DHT22;374;52.568;13.402;2022-11-15T11:27:59;9.40;99.90
782;DHT22;374;52.568;13.402;2022-11-15T11:33:05;9.50;99.90
782;DHT22;374;52.568;13.402;2022-11-15T11:38:41;9.50;99.90
782;DHT22;374;52.568;13.402;2022-11-15T11:44:28;9.60;99.90
782;DHT22;374;52.568;13.402;2022-11-15T11:47:06;9.50;99.90
782;DHT22;374;52.568;13.402;2022-11-15T11:55:27;9.60;99.90
782;DHT22;374;52.568;13.402;2022-11-15T12:01:02;9.60;99.90
782;DHT22;374;52.568;13.402;2022-11-15T12:03:43;9.60;99.90
782;DHT22;374;52.568;13.402;2022-11-15T12:09:19;9.70;99.90
782;DHT22;374;52.568;13.402;2022-11-15T12:11:56;9.70;99.90
782;DHT22;374;52.568;13.402;2022-11-15T12:14:39;9.70;99.90
782;DHT22;374;52.568;13.402;2022-11-15T12:17:07;9.80;99.90
782;DHT22;374;52.568;13.402;2022-11-15T12:19:33;9.90;99.90
782;DHT22;374;52.568;13.402;2022-11-15T12:22:12;9.90;99.90
782;DHT22;374;52.568;13.402;2022-11-15T12:24:55;9.90;99.90
782;DHT22;374;52.568;13.402;2022-11-15T12:30:00;9.90;99.90
782;DHT22;374;52.568;13.402;2022-11-15T12:32:34;10.00;99.90
782;DHT22;374;52.568;13.402;2022-11-15T12:35:03;10.00;99.90
782;DHT22;374;52.568;13.402;2022-11-15T12:42:56;10.10;99.90
782;DHT22;374;52.568;13.402;2022-11-15T12:45:40;10.10;99.90
782;DHT22;374;52.568;13.402;2022-11-15T12:50:55;10.20;99.90
782;DHT22;374;52.568;13.402;2022-11-15T12:58:56;10.30;99.90
782;DHT22;374;52.568;13.402;2022-11-15T13:06:41;10.20;99.90
782;DHT22;374;52.568;13.402;2022-11-15T13:12:08;10.30;99.90
782;DHT22;374;52.568;13.402;2022-11-15T13:17:45;10.30;99.90
782;DHT22;374;52.568;13.402;2022-11-15T13:22:52;10.40;99.90
782;DHT22;374;52.568;13.402;2022-11-15T13:28:10;10.50;99.90
782;DHT22;374;52.568;13.402;2022-11-15T13:30:37;10.50;99.90
782;DHT22;374;52.568;13.402;2022-11-15T13:33:18;10.50;99.90
782;DHT22;374;52.568;13.402;2022-11-15T13:35:51;10.50;99.90
782;DHT22;374;52.568;13.402;2022-11-15T13:40:49;10.40;99.90
782;DHT22;374;52.568;13.402;2022-11-15T13:43:28;10.30;99.90
782;DHT22;374;52.568;13.402;2022-11-15T13:46:11;10.30;99.90
782;DHT22;374;52.568;13.402;2022-11-15T13:48:38;10.20;99.90
782;DHT22;374;52.568;13.402;2022-11-15T13:51:08;10.20;99.90
782;DHT22;374;52.568;13.402;2022-11-15T13:53:40;10.30;99.90
782;DHT22;374;52.568;13.402;2022-11-15T13:56:06;10.20;99.90
782;DHT22;374;52.568;13.402;2022-11-15T13:58:32;10.30;99.90
782;DHT22;374;52.568;13.402;2022-11-15T14:01:03;10.40;99.90
782;DHT22;374;52.568;13.402;2022-11-15T14:03:34;10.50;99.90
782;DHT22;374;52.568;13.402;2022-11-15T14:08:33;10.60;99.90
782;DHT22;374;52.568;13.402;2022-11-15T14:11:19;10.60;99.90
782;DHT22;374;52.568;13.402;2022-11-15T14:14:12;10.60;99.90
782;DHT22;374;52.568;13.402;2022-11-15T14:16:58;10.60;99.90
782;DHT22;374;52.568;13.402;2022-11-15T14:22:22;10.60;99.90
782;DHT22;374;52.568;13.402;2022-11-15T14:25:06;10.50;99.90
782;DHT22;374;52.568;13.402;2022-11-15T14:27:32;10.50;99.90
782;DHT22;374;52.568;13.402;2022-11-15T14:29:58;10.60;99.90
782;DHT22;374;52.568;13.402;2022-11-15T14:32:26;10.60;99.90
782;DHT22;374;52.568;13.402;2022-11-15T14:34:57;10.60;99.90
782;DHT22;374;52.568;13.402;2022-11-15T14:37:29;10.60;99.90
782;DHT22;374;52.568;13.402;2022-11-15T14:39:58;10.70;99.90
782;DHT22;374;52.568;13.402;2022-11-15T14:42:24;10.70;99.90
782;DHT22;374;52.568;13.402;2022-11-15T14:44:50;10.80;99.90
782;DHT22;374;52.568;13.402;2022-11-15T14:47:15;10.80;99.90
782;DHT22;374;52.568;13.402;2022-11-15T14:49:42;10.80;99.90
782;DHT22;374;52.568;13.402;2022-11-15T14:52:27;10.80;99.90
782;DHT22;374;52.568;13.402;2022-11-15T14:54:54;10.80;99.90
782;DHT22;374;52.568;13.402;2022-11-15T14:57:20;10.70;99.90
782;DHT22;374;52.568;13.402;2022-11-15T14:59:46;10.70;99.90
782;DHT22;374;52.568;13.402;2022-11-15T15:02:22;10.70;99.90
782;DHT22;374;52.568;13.402;2022-11-15T15:04:49;10.70;99.90
782;DHT22;374;52.568;13.402;2022-11-15T15:07:16;10.80;99.90
782;DHT22;374;52.568;13.402;2022-11-15T15:09:42;10.80;99.90
782;DHT22;374;52.568;13.402;2022-11-15T15:12:19;10.80;99.90
782;DHT22;374;52.568;13.402;2022-11-15T15:14:46;10.80;99.90
782;DHT22;374;52.568;13.402;2022-11-15T15:17:13;10.70;99.90
782;DHT22;374;52.568;13.402;2022-11-15T15:19:38;10.70;99.90
782;DHT22;374;52.568;13.402;2022-11-15T15:22:04;10.70;99.90
782;DHT22;374;52.568;13.402;2022-11-15T15:24:30;10.70;99.90
782;DHT22;374;52.568;13.402;2022-11-15T15:27:23;10.70;99.90
782;DHT22;374;52.568;13.402;2022-11-15T15:30:01;10.70;99.90
782;DHT22;374;52.568;13.402;2022-11-15T15:32:27;10.70;99.90
782;DHT22;374;52.568;13.402;2022-11-15T15:34:58;10.70;99.90
782;DHT22;374;52.568;13.402;2022-11-15T15:37:25;10.60;99.90
782;DHT22;374;52.568;13.402;2022-11-15T15:39:58;10.60;99.90
782;DHT22;374;52.568;13.402;2022-11-15T15:42:28;10.60;99.90
782;DHT22;374;52.568;13.402;2022-11-15T15:45:06;10.60;99.90
782;DHT22;374;52.568;13.402;2022-11-15T15:47:35;10.60;99.90
782;DHT22;374;52.568;13.402;2022-11-15T15:53:21;10.50;99.90
782;DHT22;374;52.568;13.402;2022-11-15T15:55:45;10.50;99.90
782;DHT22;374;52.568;13.402;2022-11-15T15:58:18;10.50;99.90
782;DHT22;374;52.568;13.402;2022-11-15T16:00:50;10.50;99.90
782;DHT22;374;52.568;13.402;2022-11-15T16:03:16;10.50;99.90
782;DHT22;374;52.568;13.402;2022-11-15T16:05:41;10.50;99.90
782;DHT22;374;52.568;13.402;2022-11-15T16:08:18;10.50;99.90
782;DHT22;374;52.568;13.402;2022-11-15T16:10:43;10.50;99.90
782;DHT22;374;52.568;13.402;2022-11-15T16:13:09;10.40;99.90
782;DHT22;374;52.568;13.402;2022-11-15T16:15:35;10.40;99.90
782;DHT22;374;52.568;13.402;2022-11-15T16:18:01;10.40;99.90
782;DHT22;374;52.568;13.402;2022-11-15T16:20:41;10.40;99.90
782;DHT22;374;52.568;13.402;2022-11-15T16:23:15;10.40;99.90
782;DHT22;374;52.568;13.402;2022-11-15T16:25:48;10.30;99.90
782;DHT22;374;52.568;13.402;2022-11-15T16:30:44;10.30;99.90
782;DHT22;374;52.568;13.402;2022-11-15T16:33:10;10.20;99.90
782;DHT22;374;52.568;13.402;2022-11-15T16:35:36;10.20;99.90
782;DHT22;374;52.568;13.402;2022-11-15T16:38:01;10.20;99.90
782;DHT22;374;52.568;13.402;2022-11-15T16:40:29;10.20;99.90
782;DHT22;374;52.568;13.402;2022-11-15T16:42:56;10.10;99.90
782;DHT22;374;52.568;13.402;2022-11-15T16:45:23;10.10;99.90
782;DHT22;374;52.568;13.402;2022-11-15T16:47:48;10.10;99.90
782;DHT22;374;52.568;13.402;2022-11-15T16:50:20;10.10;99.90
782;DHT22;374;52.568;13.402;2022-11-15T16:52:55;10.00;99.90
782;DHT22;374;52.568;13.402;2022-11-15T16:55:22;10.00;99.90
782;DHT22;374;52.568;13.402;2022-11-15T16:57:48;10.00;99.90
782;DHT22;374;52.568;13.402;2022-11-15T17:00:16;10.00;99.90
782;DHT22;374;52.568;13.402;2022-11-15T17:02:43;9.90;99.90
782;DHT22;374;52.568;13.402;2022-11-15T17:05:09;9.90;99.90
782;DHT22;374;52.568;13.402;2022-11-15T17:07:35;9.90;99.90
782;DHT22;374;52.568;13.402;2022-11-15T17:10:01;9.80;99.90
782;DHT22;374;52.568;13.402;2022-11-15T17:12:26;9.80;99.90
782;DHT22;374;52.568;13.402;2022-11-15T17:14:52;9.70;99.90
782;DHT22;374;52.568;13.402;2022-11-15T17:17:17;9.70;99.90
782;DHT22;374;52.568;13.402;2022-11-15T17:19:42;9.70;99.90
782;DHT22;374;52.568;13.402;2022-11-15T17:22:08;9.60;99.90
782;DHT22;374;52.568;13.402;2022-11-15T17:24:33;9.60;99.90
782;DHT22;374;52.568;13.402;2022-11-15T17:26:59;9.50;99.90
782;DHT22;374;52.568;13.402;2022-11-15T17:29:24;9.50;99.90
782;DHT22;374;52.568;13.402;2022-11-15T17:31:50;9.50;99.90
782;DHT22;374;52.568;13.402;2022-11-15T17:34:16;9.40;99.90
782;DHT22;374;52.568;13.402;2022-11-15T17:36:41;9.40;99.90
782;DHT22;374;52.568;13.402;2022-11-15T17:39:07;9.40;99.90
782;DHT22;374;52.568;13.402;2022-11-15T17:41:32;9.30;99.90
782;DHT22;374;52.568;13.402;2022-11-15T17:43:58;9.30;99.90
782;DHT22;374;52.568;13.402;2022-11-15T17:46:25;9.30;99.90
782;DHT22;374;52.568;13.402;2022-11-15T17:48:55;9.30;99.90
782;DHT22;374;52.568;13.402;2022-11-15T17:54:35;9.20;99.90
782;DHT22;374;52.568;13.402;2022-11-15T17:57:01;9.20;99.90
782;DHT22;374;52.568;13.402;2022-11-15T17:59:33;9.10;99.90
782;DHT22;374;52.568;13.402;2022-11-15T18:02:11;9.10;99.90
782;DHT22;374;52.568;13.402;2022-11-15T18:04:36;9.00;99.90
782;DHT22;374;52.568;13.402;2022-11-15T18:07:02;9.00;99.90
782;DHT22;374;52.568;13.402;2022-11-15T18:09:27;9.00;99.90
782;DHT22;374;52.568;13.402;2022-11-15T18:11:53;9.00;99.90
782;DHT22;374;52.568;13.402;2022-11-15T18:14:19;9.00;99.90
782;DHT22;374;52.568;13.402;2022-11-15T18:16:45;8.90;99.90
782;DHT22;374;52.568;13.402;2022-11-15T18:19:11;8.90;99.90
782;DHT22;374;52.568;13.402;2022-11-15T18:21:39;8.80;99.90
782;DHT22;374;52.568;13.402;2022-11-15T18:24:28;8.80;99.90
782;DHT22;374;52.568;13.402;2022-11-15T18:26:58;8.80;99.90
782;DHT22;374;52.568;13.402;2022-11-15T18:29:24;8.80;99.90
782;DHT22;374;52.568;13.402;2022-11-15T18:31:50;8.80;99.90
782;DHT22;374;52.568;13.402;2022-11-15T18:34:20;8.70;99.90
782;DHT22;374;52.568;13.402;2022-11-15T18:36:49;8.70;99.90
782;DHT22;374;52.568;13.402;2022-11-15T18:39:14;8.70;99.90
782;DHT22;374;52.568;13.402;2022-11-15T18:41:42;8.70;99.90
782;DHT22;374;52.568;13.402;2022-11-15T18:44:07;8.70;99.90